createdAt,value
2019-05-03T00:00:11.904Z,2.05
2019-05-03T00:02:54.685Z,2.40
2019-05-03T00:05:29.697Z,2.20
2019-05-03T00:08:03.177Z,2.22
2019-05-03T00:10:32.146Z,2.30
2019-05-03T00:13:01.880Z,2.42
2019-05-03T00:15:52.069Z,2.20
2019-05-03T00:18:22.153Z,2.27
2019-05-03T00:23:19.310Z,2.10
2019-05-03T00:25:48.208Z,2.25
2019-05-03T00:28:17.268Z,2.00
2019-05-03T00:30:46.161Z,2.12
2019-05-03T00:33:15.008Z,1.95
2019-05-03T00:36:06.125Z,2.15
2019-05-03T00:38:35.036Z,2.00
2019-05-03T00:41:03.848Z,1.90
2019-05-03T00:43:32.984Z,2.30
2019-05-03T00:46:02.133Z,2.35
2019-05-03T00:48:32.634Z,2.05
2019-05-03T00:51:02.430Z,2.02
2019-05-03T00:53:31.881Z,2.42
2019-05-03T00:56:01.753Z,2.00
2019-05-03T00:58:31.841Z,1.80
2019-05-03T01:01:02.702Z,1.80
2019-05-03T01:03:32.539Z,2.10
2019-05-03T01:06:02.379Z,2.20
2019-05-03T01:08:32.698Z,2.08
2019-05-03T01:11:02.137Z,2.17
2019-05-03T01:13:32.047Z,1.77
2019-05-03T01:16:06.680Z,2.10
2019-05-03T01:18:35.556Z,2.22
2019-05-03T01:21:04.445Z,2.12
2019-05-03T01:23:33.274Z,2.10
2019-05-03T01:26:02.573Z,1.92
2019-05-03T01:28:32.346Z,2.20
2019-05-03T01:31:02.517Z,2.27
2019-05-03T01:33:32.256Z,2.00
2019-05-03T01:36:02.773Z,2.30
2019-05-03T01:38:32.141Z,2.10
2019-05-03T01:41:01.708Z,2.10
2019-05-03T01:43:31.735Z,2.02
2019-05-03T01:46:02.757Z,2.27
2019-05-03T01:48:42.585Z,2.10
2019-05-03T01:51:18.915Z,2.22
2019-05-03T01:53:48.554Z,2.35
2019-05-03T01:56:17.420Z,2.27
2019-05-03T01:58:46.250Z,2.35
2019-05-03T02:01:36.985Z,2.30
2019-05-03T02:04:15.011Z,2.30
2019-05-03T02:06:43.938Z,2.10
2019-05-03T02:09:12.949Z,2.00
2019-05-03T02:11:42.214Z,2.27
2019-05-03T02:14:12.416Z,2.03
2019-05-03T02:16:41.982Z,2.22
2019-05-03T02:19:12.623Z,2.00
2019-05-03T02:21:41.902Z,1.90
2019-05-03T02:24:11.816Z,2.00
2019-05-03T02:26:42.535Z,2.20
2019-05-03T02:29:12.600Z,2.12
2019-05-03T02:31:43.551Z,2.12
2019-05-03T02:34:12.690Z,2.02
2019-05-03T02:36:42.774Z,2.50
2019-05-03T02:39:13.982Z,2.30
2019-05-03T02:41:47.862Z,2.08
2019-05-03T02:44:16.459Z,1.85
2019-05-03T02:47:10.157Z,1.85
2019-05-03T02:49:45.331Z,2.15
2019-05-03T02:52:31.242Z,2.10
2019-05-03T02:55:00.350Z,2.00
2019-05-03T02:57:29.254Z,1.90
2019-05-03T02:59:58.224Z,1.72
2019-05-03T03:02:27.295Z,1.90
2019-05-03T03:04:56.483Z,1.80
2019-05-03T03:07:25.978Z,1.87
2019-05-03T03:09:55.874Z,1.92
2019-05-03T03:12:25.757Z,2.12
2019-05-03T03:14:55.218Z,1.80
2019-05-03T03:17:25.430Z,1.80
2019-05-03T03:19:55.272Z,1.72
2019-05-03T03:22:25.960Z,2.20
2019-05-03T03:24:57.900Z,1.90
2019-05-03T03:27:26.727Z,1.80
2019-05-03T03:30:29.233Z,2.00
2019-05-03T03:33:00.224Z,2.00
2019-05-03T03:35:30.861Z,1.70
2019-05-03T03:37:59.950Z,1.98
2019-05-03T03:40:29.689Z,1.98
2019-05-03T03:42:58.530Z,1.85
2019-05-03T03:45:27.461Z,2.00
2019-05-03T03:47:56.763Z,2.10
2019-05-03T03:50:26.111Z,1.90
2019-05-03T03:52:55.736Z,1.77
2019-05-03T03:55:26.498Z,1.87
2019-05-03T03:57:55.880Z,1.90
2019-05-03T04:00:25.806Z,2.05
2019-05-03T04:02:55.399Z,1.87
2019-05-03T04:05:25.340Z,2.10
2019-05-03T04:07:56.187Z,1.87
2019-05-03T04:10:26.277Z,1.80
2019-05-03T04:12:56.113Z,2.08
2019-05-03T04:15:50.856Z,1.82
2019-05-03T04:18:35.960Z,1.40
2019-05-03T04:21:05.551Z,1.55
2019-05-03T04:23:35.912Z,2.17
2019-05-03T04:28:36.168Z,2.00
2019-05-03T04:31:06.187Z,1.57
2019-05-03T04:33:35.857Z,1.82
2019-05-03T04:36:05.532Z,1.50
2019-05-03T04:38:35.462Z,1.72
2019-05-03T04:41:05.869Z,1.95
2019-05-03T04:43:35.709Z,1.70
2019-05-03T04:46:26.005Z,1.70
2019-05-03T04:48:56.200Z,1.60
2019-05-03T04:51:26.133Z,1.67
2019-05-03T04:54:12.586Z,1.75
2019-05-03T04:56:41.591Z,1.50
2019-05-03T04:59:10.495Z,1.62
2019-05-03T05:01:39.426Z,1.60
2019-05-03T05:04:08.213Z,1.50
2019-05-03T05:06:37.205Z,1.50
2019-05-03T05:09:07.197Z,1.47
2019-05-03T05:11:36.246Z,1.55
2019-05-03T05:14:06.409Z,1.80
2019-05-03T05:19:08.163Z,1.50
2019-05-03T05:21:41.299Z,1.70
2019-05-03T05:24:10.157Z,1.67
2019-05-03T05:26:45.070Z,1.85
2019-05-03T05:29:15.859Z,1.72
2019-05-03T05:31:44.770Z,1.57
2019-05-03T05:34:15.331Z,1.65
2019-05-03T05:36:45.060Z,1.60
2019-05-03T05:39:18.734Z,1.62
2019-05-03T05:41:47.433Z,1.75
2019-05-03T05:44:16.405Z,1.50
2019-05-03T05:47:10.202Z,1.70
2019-05-03T05:49:47.125Z,1.60
2019-05-03T05:52:16.137Z,1.55
2019-05-03T05:54:48.689Z,1.87
2019-05-03T05:57:34.626Z,1.55
2019-05-03T06:00:07.950Z,1.92
2019-05-03T06:02:36.896Z,1.90
2019-05-03T06:05:06.160Z,1.52
2019-05-03T06:07:56.800Z,1.40
2019-05-03T06:10:46.299Z,1.60
2019-05-03T06:13:38.040Z,1.50
2019-05-03T06:16:18.316Z,1.72
2019-05-03T06:19:18.427Z,1.80
2019-05-03T06:21:54.858Z,1.65
2019-05-03T06:24:29.029Z,1.50
2019-05-03T06:27:06.051Z,1.65
2019-05-03T06:29:35.221Z,1.50
2019-05-03T06:32:11.389Z,1.50
2019-05-03T06:34:40.711Z,1.50
2019-05-03T06:37:14.805Z,1.87
2019-05-03T06:39:45.425Z,1.40
2019-05-03T06:42:19.008Z,1.70
2019-05-03T06:44:45.596Z,1.52
2019-05-03T06:47:15.756Z,1.57
2019-05-03T06:49:48.411Z,1.45
2019-05-03T06:52:19.701Z,1.50
2019-05-03T06:54:46.562Z,1.57
2019-05-03T06:57:17.202Z,1.67
2019-05-03T06:59:54.993Z,1.50
2019-05-03T07:02:35.398Z,1.57
2019-05-03T07:05:05.071Z,1.50
2019-05-03T07:07:56.063Z,1.42
2019-05-03T07:10:32.833Z,1.52
2019-05-03T07:13:04.764Z,1.35
2019-05-03T07:15:35.177Z,1.55
2019-05-03T07:18:05.735Z,1.35
2019-05-03T07:20:47.969Z,2.00
2019-05-03T07:23:16.846Z,1.65
2019-05-03T07:25:45.713Z,1.50
2019-05-03T07:28:15.162Z,1.75
2019-05-03T07:30:45.355Z,1.62
2019-05-03T07:35:49.425Z,1.60
2019-05-03T07:38:18.338Z,1.70
2019-05-03T07:40:47.415Z,1.50
2019-05-03T07:43:18.876Z,1.60
2019-05-03T07:45:47.111Z,1.70
2019-05-03T07:48:16.017Z,1.57
2019-05-03T07:50:45.061Z,1.65
2019-05-03T07:53:15.024Z,1.62
2019-05-03T07:56:15.717Z,1.30
2019-05-03T07:58:59.493Z,1.80
2019-05-03T08:01:25.015Z,1.82
2019-05-03T08:03:55.163Z,1.50
2019-05-03T08:06:24.748Z,1.72
2019-05-03T08:08:54.552Z,1.37
2019-05-03T08:11:24.896Z,1.50
2019-05-03T08:16:25.090Z,1.57
2019-05-03T08:18:55.931Z,1.30
2019-05-03T08:21:25.458Z,1.32
2019-05-03T08:23:55.652Z,1.60
2019-05-03T08:26:25.751Z,1.40
2019-05-03T08:28:55.022Z,1.52
2019-05-03T08:31:46.368Z,1.60
2019-05-03T08:34:25.744Z,1.20
2019-05-03T08:37:05.217Z,1.37
2019-05-03T08:39:35.565Z,1.30
2019-05-03T08:44:36.295Z,1.37
2019-05-03T08:47:05.577Z,1.40
2019-05-03T08:49:34.892Z,1.37
2019-05-03T08:52:05.423Z,1.57
2019-05-03T08:54:34.845Z,1.55
2019-05-03T08:57:06.269Z,1.40
2019-05-03T08:59:35.761Z,1.45
2019-05-03T09:02:14.101Z,1.87
2019-05-03T09:04:38.531Z,1.50
2019-05-03T09:07:06.905Z,1.65
2019-05-03T09:10:01.681Z,1.35
2019-05-03T09:12:48.511Z,1.40
2019-05-03T09:15:17.416Z,1.37
2019-05-03T09:17:46.498Z,1.50
2019-05-03T09:20:15.656Z,1.70
2019-05-03T09:22:45.305Z,1.40
2019-05-03T09:25:15.446Z,1.50
2019-05-03T09:27:44.746Z,1.42
2019-05-03T09:30:14.548Z,1.50
2019-05-03T09:32:44.789Z,1.80
2019-05-03T09:35:29.023Z,1.35
2019-05-03T09:37:45.064Z,1.42
2019-05-03T09:40:15.171Z,1.50
2019-05-03T09:45:15.344Z,1.10
2019-05-03T09:47:44.905Z,1.40
2019-05-03T09:50:15.653Z,1.27
2019-05-03T09:52:47.071Z,1.30
2019-05-03T09:55:21.457Z,1.50
2019-05-03T09:57:50.474Z,1.60
2019-05-03T10:00:19.930Z,1.22
2019-05-03T10:02:48.819Z,1.50
2019-05-03T10:05:17.856Z,1.20
2019-05-03T10:07:46.807Z,1.47
2019-05-03T10:10:15.691Z,1.42
2019-05-03T10:12:44.712Z,1.50
2019-05-03T10:15:15.861Z,1.00
2019-05-03T10:17:55.635Z,1.30
2019-05-03T10:20:27.467Z,1.82
2019-05-03T10:22:59.475Z,1.50
2019-05-03T10:25:28.346Z,1.90
2019-05-03T10:27:57.338Z,1.35
2019-05-03T10:30:27.853Z,1.27
2019-05-03T10:33:06.169Z,1.20
2019-05-03T10:35:35.478Z,1.20
2019-05-03T10:38:05.805Z,1.63
2019-05-03T10:40:35.762Z,1.40
2019-05-03T10:43:04.986Z,1.32
2019-05-03T10:45:35.482Z,1.40
2019-05-03T10:48:04.990Z,1.10
2019-05-03T10:50:40.276Z,1.35
2019-05-03T10:53:15.406Z,1.30
2019-05-03T10:56:07.834Z,1.57
2019-05-03T10:58:37.260Z,1.25
2019-05-03T11:01:06.506Z,1.10
2019-05-03T11:03:35.539Z,1.50
2019-05-03T11:06:05.519Z,1.47
2019-05-03T11:08:34.431Z,1.22
2019-05-03T11:11:05.805Z,1.42
2019-05-03T11:13:34.988Z,1.40
2019-05-03T11:16:05.626Z,1.52
2019-05-03T11:18:34.785Z,1.10
2019-05-03T11:21:05.215Z,1.20
2019-05-03T11:23:34.716Z,1.57
2019-05-03T11:26:03.704Z,1.40
2019-05-03T11:28:32.728Z,1.25
2019-05-03T11:31:21.043Z,1.40
2019-05-03T11:33:49.893Z,1.30
2019-05-03T11:36:34.873Z,1.40
2019-05-03T11:39:05.172Z,1.60
2019-05-03T11:41:35.907Z,1.20
2019-05-03T11:44:24.202Z,1.10
2019-05-03T11:46:55.107Z,1.20
2019-05-03T11:49:25.481Z,1.15
2019-05-03T11:51:55.587Z,1.52
2019-05-03T11:56:55.625Z,1.40
2019-05-03T11:59:25.407Z,1.32
2019-05-03T12:02:15.319Z,1.20
2019-05-03T12:04:45.871Z,1.42
2019-05-03T12:07:18.405Z,1.30
2019-05-03T12:09:47.607Z,1.25
2019-05-03T12:12:29.456Z,1.57
2019-05-03T12:14:58.495Z,1.07
2019-05-03T12:17:30.157Z,1.20
2019-05-03T12:20:00.855Z,1.62
2019-05-03T12:22:30.506Z,1.20
2019-05-03T12:25:00.827Z,1.30
2019-05-03T12:27:30.460Z,1.47
2019-05-03T12:29:59.574Z,1.10
2019-05-03T12:32:28.623Z,1.40
2019-05-03T12:34:59.521Z,0.90
2019-05-03T12:37:28.488Z,1.20
2019-05-03T12:39:57.741Z,1.25
2019-05-03T12:42:28.484Z,1.60
2019-05-03T12:44:57.646Z,1.37
2019-05-03T12:47:26.691Z,1.32
2019-05-03T12:49:55.952Z,1.20
2019-05-03T12:52:26.733Z,1.30
2019-05-03T12:54:55.581Z,1.45
2019-05-03T12:57:24.892Z,1.15
2019-05-03T13:00:02.408Z,1.10
2019-05-03T13:02:38.667Z,1.12
2019-05-03T13:05:07.753Z,1.20
2019-05-03T13:07:41.728Z,1.40
2019-05-03T13:10:10.691Z,1.17
2019-05-03T13:12:50.652Z,1.07
2019-05-03T13:15:11.722Z,1.27
2019-05-03T13:17:41.045Z,1.22
2019-05-03T13:20:11.957Z,1.20
2019-05-03T13:22:40.853Z,1.17
2019-05-03T13:25:09.983Z,1.20
2019-05-03T13:27:38.868Z,1.62
2019-05-03T13:30:09.807Z,1.25
2019-05-03T13:32:38.817Z,1.42
2019-05-03T13:35:08.495Z,1.30
2019-05-03T13:37:37.855Z,1.17
2019-05-03T13:40:07.329Z,1.10
2019-05-03T13:42:36.238Z,0.90
2019-05-03T13:45:05.845Z,1.07
2019-05-03T13:47:35.139Z,1.45
2019-05-03T13:50:04.898Z,1.10
2019-05-03T13:52:34.620Z,1.42
2019-05-03T13:55:05.407Z,1.20
2019-05-03T13:57:35.355Z,1.32
2019-05-03T14:00:05.924Z,1.00
2019-05-03T14:05:24.567Z,1.25
2019-05-03T14:07:53.783Z,1.40
2019-05-03T14:10:24.995Z,1.15
2019-05-03T14:12:54.825Z,1.22
2019-05-03T14:17:54.721Z,1.15
2019-05-03T14:20:41.539Z,1.07
2019-05-03T14:23:10.971Z,0.90
2019-05-03T14:25:39.981Z,1.23
2019-05-03T14:28:09.155Z,1.05
2019-05-03T14:30:38.074Z,1.10
2019-05-03T14:33:07.002Z,0.93
2019-05-03T14:35:35.801Z,1.27
2019-05-03T14:38:05.911Z,1.12
2019-05-03T14:43:04.789Z,1.35
2019-05-03T14:45:34.944Z,1.35
2019-05-03T14:50:35.057Z,1.20
2019-05-03T14:53:05.460Z,1.20
2019-05-03T14:55:59.483Z,1.02
2019-05-03T14:58:49.346Z,1.20
2019-05-03T15:01:28.127Z,1.40
2019-05-03T15:03:57.255Z,1.02
2019-05-03T15:06:26.185Z,1.00
2019-05-03T15:08:54.985Z,1.10
2019-05-03T15:11:24.001Z,1.27
2019-05-03T15:13:54.911Z,1.20
2019-05-03T15:16:25.015Z,1.17
2019-05-03T15:18:54.828Z,1.60
2019-05-03T15:21:25.206Z,1.22
2019-05-03T15:23:54.839Z,1.20
2019-05-03T15:26:24.880Z,1.15
2019-05-03T15:28:55.423Z,1.30
2019-05-03T15:31:24.672Z,1.20
2019-05-03T15:33:55.374Z,1.10
2019-05-03T15:36:24.350Z,1.02
2019-05-03T15:38:55.094Z,1.20
2019-05-03T15:41:25.178Z,0.93
2019-05-03T15:46:57.006Z,1.10
2019-05-03T15:49:27.694Z,1.20
2019-05-03T15:51:56.619Z,1.15
2019-05-03T15:54:25.533Z,1.30
2019-05-03T15:56:54.535Z,1.20
2019-05-03T15:59:24.382Z,1.30
2019-05-03T16:01:55.185Z,1.30
2019-05-03T16:04:25.091Z,1.20
2019-05-03T16:06:55.380Z,1.10
2019-05-03T16:09:24.665Z,1.07
2019-05-03T16:11:55.438Z,1.20
2019-05-03T16:14:24.501Z,1.25
2019-05-03T16:16:54.749Z,1.02
2019-05-03T16:21:54.530Z,1.00
2019-05-03T16:24:24.880Z,1.30
2019-05-03T16:29:56.081Z,1.37
2019-05-03T16:32:24.963Z,1.15
2019-05-03T16:34:54.970Z,1.70
2019-05-03T16:37:25.438Z,0.90
2019-05-03T16:39:55.571Z,1.42
2019-05-03T16:42:25.019Z,1.40
2019-05-03T16:44:55.000Z,1.15
2019-05-03T16:47:24.961Z,1.27
2019-05-03T16:49:53.875Z,1.37
2019-05-03T16:52:22.794Z,1.20
2019-05-03T16:54:51.834Z,1.20
2019-05-03T16:57:20.856Z,1.45
2019-05-03T16:59:49.890Z,1.22
2019-05-03T17:02:18.867Z,1.30
2019-05-03T17:04:55.675Z,1.62
2019-05-03T17:07:41.879Z,1.20
2019-05-03T17:10:27.137Z,1.40
2019-05-03T17:12:56.945Z,1.30
2019-05-03T17:15:25.936Z,1.40
2019-05-03T17:17:54.929Z,1.57
2019-05-03T17:20:25.423Z,1.37
2019-05-03T17:22:55.518Z,1.27
2019-05-03T17:25:24.625Z,1.27
2019-05-03T17:27:54.293Z,1.50
2019-05-03T17:30:32.806Z,1.25
2019-05-03T17:32:55.112Z,1.20
2019-05-03T17:35:25.162Z,1.42
2019-05-03T17:37:54.631Z,1.42
2019-05-03T17:40:45.745Z,1.40
2019-05-03T17:43:23.320Z,1.30
2019-05-03T17:45:54.997Z,1.30
2019-05-03T17:48:24.097Z,1.32
2019-05-03T17:50:54.932Z,1.40
2019-05-03T17:53:55.155Z,1.75
2019-05-03T17:59:15.196Z,1.47
2019-05-03T18:02:01.225Z,1.32
2019-05-03T18:04:39.170Z,1.60
2019-05-03T18:07:18.430Z,1.30
2019-05-03T18:09:47.786Z,1.20
2019-05-03T18:12:16.727Z,1.60
2019-05-03T18:14:45.735Z,1.20
2019-05-03T18:17:14.912Z,1.50
2019-05-03T18:19:44.851Z,1.27
2019-05-03T18:24:45.493Z,1.32
2019-05-03T18:27:15.049Z,1.57
2019-05-03T18:29:44.946Z,1.45
2019-05-03T18:32:14.700Z,1.37
2019-05-03T18:34:45.365Z,1.30
2019-05-03T18:37:15.226Z,1.60
2019-05-03T18:39:45.227Z,1.12
2019-05-03T18:42:19.410Z,1.20
2019-05-03T18:44:51.780Z,1.35
2019-05-03T18:47:25.068Z,1.55
2019-05-03T18:49:54.989Z,1.22
2019-05-03T18:52:24.162Z,1.27
2019-05-03T18:54:55.093Z,1.05
2019-05-03T18:57:25.570Z,1.20
2019-05-03T18:59:55.567Z,1.35
2019-05-03T19:02:25.192Z,1.07
2019-05-03T19:04:55.489Z,1.40
2019-05-03T19:07:46.204Z,1.32
2019-05-03T19:10:33.060Z,1.70
2019-05-03T19:13:18.410Z,1.40
2019-05-03T19:15:47.248Z,1.60
2019-05-03T19:18:27.789Z,1.40
2019-05-03T19:20:56.678Z,1.52
2019-05-03T19:23:25.601Z,1.62
2019-05-03T19:25:55.284Z,1.22
2019-05-03T19:28:25.036Z,1.40
2019-05-03T19:30:54.973Z,1.20
2019-05-03T19:33:24.101Z,1.77
2019-05-03T19:35:54.912Z,1.20
2019-05-03T19:38:24.603Z,1.32
2019-05-03T19:40:54.802Z,1.42
2019-05-03T19:43:24.372Z,1.17
2019-05-03T19:45:54.392Z,1.15
2019-05-03T19:48:25.413Z,1.50
2019-05-03T19:50:54.907Z,1.37
2019-05-03T19:53:49.207Z,1.37
2019-05-03T19:56:19.100Z,1.40
2019-05-03T19:58:48.110Z,1.42
2019-05-03T20:01:42.020Z,1.40
2019-05-03T20:04:30.301Z,1.47
2019-05-03T20:07:16.803Z,1.20
2019-05-03T20:09:45.809Z,1.30
2019-05-03T20:12:15.269Z,1.40
2019-05-03T20:14:45.062Z,1.30
2019-05-03T20:17:14.816Z,1.20
2019-05-03T20:19:45.145Z,1.15
2019-05-03T20:24:44.813Z,1.37
2019-05-03T20:27:15.141Z,1.35
2019-05-03T20:29:46.315Z,1.30
2019-05-03T20:32:15.917Z,1.22
2019-05-03T20:34:45.077Z,1.20
2019-05-03T20:37:14.691Z,1.57
2019-05-03T20:39:43.905Z,1.20
2019-05-03T20:42:15.445Z,1.50
2019-05-03T20:44:56.006Z,1.70
2019-05-03T20:47:38.371Z,1.27
2019-05-03T20:50:17.808Z,1.25
2019-05-03T20:52:47.037Z,1.30
2019-05-03T20:55:16.036Z,1.20
2019-05-03T20:57:45.111Z,1.22
2019-05-03T21:00:16.181Z,1.30
2019-05-03T21:02:53.463Z,1.35
2019-05-03T21:05:27.209Z,1.62
2019-05-03T21:07:46.829Z,1.25
2019-05-03T21:10:15.805Z,1.52
2019-05-03T21:12:46.241Z,1.30
2019-05-03T21:15:39.877Z,1.50
2019-05-03T21:18:27.299Z,1.60
2019-05-03T21:21:09.632Z,1.52
2019-05-03T21:23:42.211Z,1.30
2019-05-03T21:28:59.112Z,1.40
2019-05-03T21:31:28.070Z,1.50
2019-05-03T21:33:57.049Z,1.30
2019-05-03T21:36:25.983Z,1.37
2019-05-03T21:38:55.028Z,1.40
2019-05-03T21:41:24.613Z,1.30
2019-05-03T21:43:54.492Z,1.37
2019-05-03T21:46:42.486Z,1.40
2019-05-03T21:49:16.478Z,1.12
2019-05-03T21:51:45.368Z,1.30
2019-05-03T21:54:15.269Z,1.45
2019-05-03T21:56:44.788Z,1.40
2019-05-03T21:59:13.893Z,1.70
2019-05-03T22:02:02.091Z,1.20
2019-05-03T22:04:30.967Z,1.50
2019-05-03T22:06:59.973Z,1.25
2019-05-03T22:09:28.952Z,1.42
2019-05-03T22:11:57.880Z,1.50
2019-05-03T22:14:35.247Z,1.30
2019-05-03T22:17:26.226Z,1.25
2019-05-03T22:19:59.217Z,1.40
2019-05-03T22:22:47.062Z,1.30
2019-05-03T22:25:17.602Z,1.60
2019-05-03T22:27:46.572Z,1.32
2019-05-03T22:30:15.634Z,1.70
2019-05-03T22:32:44.632Z,1.45
2019-05-03T22:35:15.635Z,1.62
2019-05-03T22:37:44.686Z,1.35
2019-05-03T22:40:14.605Z,1.27
2019-05-03T22:42:44.815Z,1.62
2019-05-03T22:45:14.225Z,1.50
2019-05-03T22:47:44.567Z,1.35
2019-05-03T22:52:45.524Z,1.47
2019-05-03T22:55:15.277Z,1.20
2019-05-03T22:57:44.702Z,1.65
2019-05-03T23:00:14.609Z,1.20
2019-05-03T23:02:45.510Z,1.32
2019-05-03T23:05:14.841Z,1.47
2019-05-03T23:07:44.259Z,1.25
2019-05-03T23:10:14.817Z,1.35
2019-05-03T23:12:45.261Z,1.30
2019-05-03T23:15:15.064Z,1.37
2019-05-03T23:17:45.154Z,1.40
2019-05-03T23:20:25.479Z,1.42
2019-05-03T23:22:54.801Z,1.20
2019-05-03T23:25:24.984Z,1.60
2019-05-03T23:27:55.105Z,1.50
2019-05-03T23:30:24.770Z,1.30
2019-05-03T23:32:54.700Z,1.40
2019-05-03T23:35:24.648Z,1.27
2019-05-03T23:37:54.332Z,1.50
2019-05-03T23:40:25.296Z,1.55
2019-05-03T23:42:54.537Z,1.27
2019-05-03T23:45:25.418Z,1.20
2019-05-03T23:47:54.085Z,1.47
2019-05-03T23:50:24.728Z,1.32
2019-05-03T23:52:54.501Z,1.32
2019-05-03T23:55:34.935Z,1.32
2019-05-03T23:58:04.859Z,1.50
